Time;durP1;ratioP1;P1;durP2;ratioP2;P2;SDS_P1;SDS_P2;PMS_P1;PMS_P2;Temp;Humidity;BMP_temperature;BMP_pressure;BME280_temperature;BME280_humidity;BME280_pressure;Samples;Min_cycle;Max_cycle;Signal;HPM_P1;HPM_P2
2023/09/25 00:01:26;;;;;;;;;;;16.30;99.90;;;;;;4978555;28;20556;-70
2023/09/25 00:03:52;;;;;;;;;;;16.30;99.90;;;;;;4977588;28;20368;-70
2023/09/25 00:06:18;;;;;;;;;;;16.20;99.90;;;;;;4969952;28;19949;-70
2023/09/25 00:08:45;;;;;;;;;;;16.20;99.90;;;;;;4976510;28;20052;-70
2023/09/25 00:11:10;;;;;;;;;;;16.20;99.90;;;;;;4987967;28;19922;-70
2023/09/25 00:13:36;;;;;;;;;;;16.30;99.90;;;;;;4974549;28;19928;-70
2023/09/25 00:16:01;;;;;;;;;;;16.30;99.90;;;;;;4994503;28;21416;-70
2023/09/25 00:18:28;;;;;;;;;;;16.40;99.90;;;;;;4989692;28;19968;-70
2023/09/25 00:20:54;;;;;;;;;;;16.30;99.90;;;;;;4981269;28;19913;-70
2023/09/25 00:23:20;;;;;;;;;;;16.30;99.90;;;;;;4986920;28;19929;-70
2023/09/25 00:25:45;;;;;;;;;;;16.30;99.90;;;;;;4997019;28;20474;-70
2023/09/25 00:28:11;;;;;;;;;;;16.30;99.90;;;;;;4984046;28;20625;-70
2023/09/25 00:30:36;;;;;;;;;;;16.30;99.90;;;;;;4981049;28;20355;-70
2023/09/25 00:33:02;;;;;;;;;;;16.30;99.90;;;;;;4978786;28;19925;-70
2023/09/25 00:35:28;;;;;;;;;;;16.30;99.90;;;;;;4983492;28;20344;-70
2023/09/25 00:37:54;;;;;;;;;;;16.30;99.90;;;;;;4987231;28;19914;-70
2023/09/25 00:40:21;;;;;;;;;;;16.20;99.90;;;;;;4997612;28;19975;-70
2023/09/25 00:42:54;;;;;;;;;;;16.20;99.90;;;;;;4981578;28;20599;-70
2023/09/25 00:45:19;;;;;;;;;;;16.20;99.90;;;;;;4978052;28;20004;-70
2023/09/25 00:47:45;;;;;;;;;;;16.10;99.90;;;;;;4981099;28;19932;-70
2023/09/25 00:50:11;;;;;;;;;;;16.10;99.90;;;;;;5001101;28;19918;-70
2023/09/25 00:52:42;;;;;;;;;;;16.10;99.90;;;;;;4976581;28;20293;-70
2023/09/25 00:55:07;;;;;;;;;;;16.10;99.90;;;;;;4986072;28;19972;-70
2023/09/25 00:57:34;;;;;;;;;;;16.10;99.90;;;;;;4984927;28;20337;-70
2023/09/25 01:00:00;;;;;;;;;;;16.10;99.90;;;;;;4981747;28;19921;-70
2023/09/25 01:02:25;;;;;;;;;;;16.10;99.90;;;;;;4979587;28;19918;-70
2023/09/25 01:04:51;;;;;;;;;;;16.20;99.90;;;;;;4979049;28;20165;-70
2023/09/25 01:07:19;;;;;;;;;;;16.10;99.90;;;;;;4978966;28;19987;-70
2023/09/25 01:10:04;;;;;;;;;;;16.10;99.90;;;;;;4981095;28;20365;-70
2023/09/25 01:12:30;;;;;;;;;;;16.10;99.90;;;;;;4978880;28;19917;-70
2023/09/25 01:14:56;;;;;;;;;;;16.10;99.90;;;;;;5013017;28;20365;-70
2023/09/25 01:17:23;;;;;;;;;;;16.00;99.90;;;;;;4987347;28;19910;-71
2023/09/25 01:19:48;;;;;;;;;;;16.00;99.90;;;;;;4984427;28;19914;-70
2023/09/25 01:22:14;;;;;;;;;;;15.90;99.90;;;;;;4976619;28;20672;-70
2023/09/25 01:24:39;;;;;;;;;;;15.90;99.90;;;;;;4972925;28;20651;-70
2023/09/25 01:27:05;;;;;;;;;;;15.80;99.90;;;;;;4983141;28;20028;-70
2023/09/25 01:29:30;;;;;;;;;;;15.80;99.90;;;;;;4998857;28;19917;-70
2023/09/25 01:31:56;;;;;;;;;;;15.80;99.90;;;;;;4980133;28;19918;-70
2023/09/25 01:34:23;;;;;;;;;;;15.70;99.90;;;;;;4984601;28;19918;-70
2023/09/25 01:36:48;;;;;;;;;;;15.70;99.90;;;;;;4981449;28;20008;-70
2023/09/25 01:39:14;;;;;;;;;;;15.70;99.90;;;;;;4984403;28;19997;-70
2023/09/25 01:41:40;;;;;;;;;;;15.70;99.90;;;;;;4978868;28;19913;-70
2023/09/25 01:44:06;;;;;;;;;;;15.60;99.90;;;;;;4993664;28;20416;-70
2023/09/25 01:46:32;;;;;;;;;;;15.70;99.90;;;;;;4992855;28;19910;-70
2023/09/25 01:48:58;;;;;;;;;;;15.70;99.90;;;;;;4969731;28;19928;-70
2023/09/25 01:51:23;;;;;;;;;;;15.70;99.90;;;;;;4983838;28;19913;-70
2023/09/25 01:53:50;;;;;;;;;;;15.70;99.90;;;;;;4984201;28;20506;-70
2023/09/25 01:56:16;;;;;;;;;;;15.70;99.90;;;;;;4986351;28;19976;-70
2023/09/25 01:58:42;;;;;;;;;;;15.70;99.90;;;;;;4986447;28;19914;-70
2023/09/25 02:01:08;;;;;;;;;;;15.70;99.90;;;;;;4979513;28;19920;-70
2023/09/25 02:03:33;;;;;;;;;;;15.70;99.90;;;;;;4983426;28;20357;-70
2023/09/25 02:05:59;;;;;;;;;;;15.70;99.90;;;;;;4989682;28;19913;-70
2023/09/25 02:08:25;;;;;;;;;;;15.70;99.90;;;;;;4983817;28;19929;-70
2023/09/25 02:10:50;;;;;;;;;;;15.70;99.90;;;;;;4983690;28;20358;-70
2023/09/25 02:13:16;;;;;;;;;;;15.60;99.90;;;;;;4979569;28;20184;-70
2023/09/25 02:15:42;;;;;;;;;;;15.60;99.90;;;;;;4978372;28;19918;-70
2023/09/25 02:18:08;;;;;;;;;;;15.50;99.90;;;;;;4977508;28;19980;-70
2023/09/25 02:20:34;;;;;;;;;;;15.40;99.90;;;;;;4990538;28;20367;-70
2023/09/25 02:23:00;;;;;;;;;;;15.30;99.90;;;;;;4986024;28;19909;-70
2023/09/25 02:25:25;;;;;;;;;;;15.20;99.90;;;;;;4988158;28;19914;-70
2023/09/25 02:27:51;;;;;;;;;;;15.30;99.90;;;;;;4985833;28;20390;-68
2023/09/25 02:30:17;;;;;;;;;;;15.20;99.90;;;;;;4981986;28;20309;-68
2023/09/25 02:32:43;;;;;;;;;;;15.10;99.90;;;;;;4977421;28;20446;-68
2023/09/25 02:35:09;;;;;;;;;;;15.10;99.90;;;;;;4996244;28;19926;-68
2023/09/25 02:37:36;;;;;;;;;;;15.00;99.90;;;;;;4980745;28;20016;-68
2023/09/25 02:40:02;;;;;;;;;;;14.90;99.90;;;;;;4977032;28;19996;-68
2023/09/25 02:42:28;;;;;;;;;;;14.80;99.90;;;;;;4974169;28;20379;-68
2023/09/25 02:44:53;;;;;;;;;;;14.80;99.90;;;;;;4999570;28;19913;-69
2023/09/25 02:47:19;;;;;;;;;;;14.80;99.90;;;;;;4974787;28;20040;-69
2023/09/25 02:49:44;;;;;;;;;;;14.70;99.90;;;;;;4993176;28;20296;-69
2023/09/25 02:52:10;;;;;;;;;;;14.60;99.90;;;;;;5018906;28;19947;-68
2023/09/25 02:54:36;;;;;;;;;;;14.60;99.90;;;;;;4980617;28;20328;-68
2023/09/25 02:57:01;;;;;;;;;;;14.60;99.90;;;;;;4980874;28;19979;-68
2023/09/25 02:59:27;;;;;;;;;;;14.60;99.90;;;;;;4998170;28;20043;-68
2023/09/25 03:01:52;;;;;;;;;;;14.50;99.90;;;;;;5003718;28;20458;-69
2023/09/25 03:04:18;;;;;;;;;;;14.50;99.90;;;;;;4998822;28;19982;-69
2023/09/25 03:06:43;;;;;;;;;;;14.40;99.90;;;;;;4984381;28;19924;-69
2023/09/25 03:09:09;;;;;;;;;;;14.40;99.90;;;;;;5001555;28;19964;-68
2023/09/25 03:11:34;;;;;;;;;;;14.30;99.90;;;;;;4979877;28;19998;-68
2023/09/25 03:14:00;;;;;;;;;;;14.30;99.90;;;;;;4989325;28;19926;-68
2023/09/25 06:42:48;;;;;;;;;;;17.30;99.90;;;;;;5993488;23;19925;-66
2023/09/25 06:45:13;;;;;;;;;;;17.10;99.90;;;;;;5001528;28;20568;-66
2023/09/25 06:47:39;;;;;;;;;;;17.20;99.90;;;;;;5014670;28;19913;-66
2023/09/25 06:50:05;;;;;;;;;;;17.50;99.90;;;;;;5012823;28;19924;-64
2023/09/25 06:52:30;;;;;;;;;;;17.80;99.90;;;;;;5002826;28;20035;-66
2023/09/25 06:54:56;;;;;;;;;;;18.10;99.90;;;;;;5021276;28;19920;-65
2023/09/25 06:57:22;;;;;;;;;;;18.40;99.90;;;;;;5015008;28;20202;-66
2023/09/25 06:59:47;;;;;;;;;;;18.60;99.90;;;;;;5017745;28;20363;-65
2023/09/25 07:02:13;;;;;;;;;;;18.60;99.90;;;;;;5017773;28;20004;-66
2023/09/25 07:04:38;;;;;;;;;;;18.50;99.90;;;;;;5015025;28;20672;-66
2023/09/25 07:07:05;;;;;;;;;;;18.40;99.90;;;;;;5020666;28;19974;-66
2023/09/25 07:09:31;;;;;;;;;;;18.30;99.90;;;;;;4998140;28;19917;-66
2023/09/25 07:11:56;;;;;;;;;;;18.10;99.90;;;;;;5017301;28;19978;-66
2023/09/25 07:14:22;;;;;;;;;;;18.00;99.90;;;;;;5013269;28;19913;-66
2023/09/25 07:16:48;;;;;;;;;;;17.90;99.90;;;;;;4996527;28;19917;-63
2023/09/25 07:19:13;;;;;;;;;;;17.60;99.90;;;;;;4997826;28;19917;-63
2023/09/25 07:21:40;;;;;;;;;;;17.50;99.90;;;;;;5014344;28;19917;-63
2023/09/25 07:24:06;;;;;;;;;;;17.50;99.90;;;;;;5015420;28;19961;-65
2023/09/25 07:26:32;;;;;;;;;;;17.40;99.90;;;;;;5018097;28;19967;-63
2023/09/25 07:28:57;;;;;;;;;;;17.10;99.90;;;;;;5016097;28;19989;-64
2023/09/25 07:31:23;;;;;;;;;;;16.90;99.90;;;;;;5013640;28;20517;-64
2023/09/25 07:33:49;;;;;;;;;;;16.70;99.90;;;;;;5017302;28;20188;-64
2023/09/25 07:36:19;;;;;;;;;;;16.50;99.90;;;;;;5010237;28;19913;-63
2023/09/25 07:38:46;;;;;;;;;;;16.30;99.90;;;;;;5017070;28;19917;-65
2023/09/25 07:41:12;;;;;;;;;;;16.30;99.90;;;;;;5022479;28;19927;-64
2023/09/25 07:43:41;;;;;;;;;;;16.50;99.90;;;;;;5004069;28;20011;-64
2023/09/25 07:46:07;;;;;;;;;;;16.70;99.90;;;;;;5017278;28;19909;-63
2023/09/25 07:48:39;;;;;;;;;;;16.80;99.90;;;;;;5000743;28;19917;-64
2023/09/25 07:51:07;;;;;;;;;;;17.00;99.90;;;;;;4999433;28;19917;-64
2023/09/25 07:53:39;;;;;;;;;;;17.10;99.90;;;;;;5017936;28;20392;-63
2023/09/25 07:56:05;;;;;;;;;;;17.10;99.90;;;;;;5018962;28;20351;-64
2023/09/25 07:58:32;;;;;;;;;;;17.30;99.90;;;;;;5014838;28;19988;-63
2023/09/25 08:01:04;;;;;;;;;;;17.40;99.90;;;;;;5007420;28;19910;-64
2023/09/25 08:03:30;;;;;;;;;;;17.30;99.90;;;;;;5015897;28;20168;-63
2023/09/25 08:05:56;;;;;;;;;;;17.20;99.90;;;;;;5009230;28;19913;-63
2023/09/25 08:08:22;;;;;;;;;;;17.30;99.90;;;;;;5018345;28;19920;-64
2023/09/25 08:10:48;;;;;;;;;;;17.50;99.90;;;;;;5017513;28;20442;-64
2023/09/25 08:13:15;;;;;;;;;;;17.70;99.90;;;;;;5020853;28;19917;-64
2023/09/25 08:15:40;;;;;;;;;;;17.90;99.90;;;;;;5005407;28;20269;-64
2023/09/25 08:18:06;;;;;;;;;;;18.30;99.90;;;;;;5020796;28;19918;-64
2023/09/25 08:20:32;;;;;;;;;;;18.80;99.90;;;;;;5016885;28;19916;-68
2023/09/25 08:22:58;;;;;;;;;;;19.30;99.90;;;;;;5017202;28;19916;-65
2023/09/25 08:25:23;;;;;;;;;;;19.70;99.90;;;;;;5017943;28;19909;-66
2023/09/25 08:27:51;;;;;;;;;;;19.90;99.90;;;;;;5011774;28;19910;-66
2023/09/25 08:30:17;;;;;;;;;;;19.90;99.90;;;;;;5011144;28;19917;-67
2023/09/25 08:32:42;;;;;;;;;;;19.50;99.90;;;;;;5018143;28;20855;-66
2023/09/25 08:35:09;;;;;;;;;;;19.10;99.90;;;;;;5016400;28;19913;-66
2023/09/25 08:37:35;;;;;;;;;;;18.70;99.90;;;;;;5016784;28;20311;-67
2023/09/25 08:40:01;;;;;;;;;;;18.40;99.90;;;;;;5019682;28;20442;-66
2023/09/25 08:42:27;;;;;;;;;;;18.20;99.90;;;;;;5015513;28;20006;-63
2023/09/25 08:44:54;;;;;;;;;;;18.40;99.90;;;;;;5015891;28;19956;-66
2023/09/25 08:47:20;;;;;;;;;;;18.40;99.90;;;;;;5017231;28;19917;-66
2023/09/25 08:49:52;;;;;;;;;;;18.70;99.90;;;;;;5016907;28;19917;-66
2023/09/25 08:52:18;;;;;;;;;;;18.50;99.90;;;;;;5021858;28;19913;-64
2023/09/25 08:54:44;;;;;;;;;;;18.60;99.90;;;;;;5018140;28;19921;-65
2023/09/25 08:57:10;;;;;;;;;;;18.60;99.90;;;;;;5017517;28;19952;-64
2023/09/25 08:59:36;;;;;;;;;;;18.70;99.90;;;;;;4998840;28;20391;-66
2023/09/25 09:02:02;;;;;;;;;;;18.90;99.90;;;;;;5012792;28;20074;-65
2023/09/25 09:04:28;;;;;;;;;;;19.10;99.90;;;;;;5016675;28;19961;-64
2023/09/25 09:06:54;;;;;;;;;;;19.40;99.90;;;;;;5015573;28;19967;-65
2023/09/25 09:09:21;;;;;;;;;;;19.50;99.90;;;;;;5017161;28;20349;-64
2023/09/25 09:11:53;;;;;;;;;;;18.90;99.90;;;;;;5018446;28;19916;-66
2023/09/25 09:14:37;;;;;;;;;;;19.00;99.90;;;;;;5012014;28;19913;-64
2023/09/25 09:17:06;;;;;;;;;;;19.10;99.90;;;;;;5012263;28;19913;-65
2023/09/25 09:19:36;;;;;;;;;;;19.50;99.90;;;;;;5015752;28;19913;-65
2023/09/25 09:22:06;;;;;;;;;;;19.80;99.90;;;;;;5000283;28;19982;-66
2023/09/25 09:24:38;;;;;;;;;;;20.40;99.90;;;;;;5020289;28;19916;-65
2023/09/25 09:27:07;;;;;;;;;;;20.40;99.90;;;;;;5012364;28;19920;-65
2023/09/25 09:29:36;;;;;;;;;;;20.40;99.90;;;;;;5018437;28;20384;-66
2023/09/25 09:32:02;;;;;;;;;;;20.30;99.90;;;;;;5010133;28;19917;-66
2023/09/25 09:34:28;;;;;;;;;;;20.70;99.90;;;;;;5015580;28;19955;-65
2023/09/25 09:36:54;;;;;;;;;;;20.50;99.90;;;;;;5017530;28;19952;-65
2023/09/25 09:39:25;;;;;;;;;;;20.40;99.90;;;;;;5001420;28;19913;-64
2023/09/25 09:41:51;;;;;;;;;;;20.50;99.90;;;;;;5011902;28;19917;-64
2023/09/25 09:44:17;;;;;;;;;;;20.70;99.90;;;;;;5013145;28;20035;-64
2023/09/25 09:46:44;;;;;;;;;;;20.60;99.90;;;;;;5015106;28;19967;-64
2023/09/25 09:49:12;;;;;;;;;;;20.70;99.90;;;;;;5002256;28;20658;-64
2023/09/25 09:51:39;;;;;;;;;;;20.90;99.90;;;;;;5015178;28;19917;-63
2023/09/25 09:54:05;;;;;;;;;;;20.90;99.90;;;;;;5015559;28;19971;-63
2023/09/25 09:56:32;;;;;;;;;;;21.20;99.90;;;;;;5017176;28;19915;-63
2023/09/25 09:58:57;;;;;;;;;;;21.30;99.90;;;;;;5012441;28;19914;-62
2023/09/25 10:01:24;;;;;;;;;;;21.40;99.90;;;;;;5014898;28;19983;-64
2023/09/25 10:03:50;;;;;;;;;;;21.50;99.90;;;;;;5009565;28;19913;-62
2023/09/25 10:06:15;;;;;;;;;;;21.70;99.90;;;;;;5016536;28;20382;-64
2023/09/25 10:09:07;;;;;;;;;;;21.90;99.90;;;;;;5015164;28;19917;-64
2023/09/25 10:11:33;;;;;;;;;;;22.30;99.90;;;;;;5015774;28;20520;-67
2023/09/25 10:14:05;;;;;;;;;;;22.60;99.90;;;;;;5013815;28;19917;-66
2023/09/25 10:16:50;;;;;;;;;;;22.60;99.90;;;;;;4998609;28;19913;-67
2023/09/25 10:19:20;;;;;;;;;;;22.20;99.90;;;;;;5019110;28;19917;-64
2023/09/25 10:22:04;;;;;;;;;;;21.40;99.90;;;;;;5014271;28;19939;-64
2023/09/25 10:24:30;;;;;;;;;;;21.50;99.90;;;;;;5014079;28;19974;-63
2023/09/25 10:26:56;;;;;;;;;;;22.00;99.90;;;;;;5020651;28;20820;-64
2023/09/25 10:29:22;;;;;;;;;;;21.40;99.90;;;;;;5015197;28;20004;-64
2023/09/25 10:31:48;;;;;;;;;;;20.90;99.90;;;;;;5018154;28;19913;-64
2023/09/25 10:34:14;;;;;;;;;;;21.00;99.90;;;;;;5000415;28;19920;-63
2023/09/25 10:36:43;;;;;;;;;;;20.90;99.90;;;;;;5015336;28;20331;-65
2023/09/25 10:39:09;;;;;;;;;;;21.00;99.90;;;;;;5010009;28;19909;-63
2023/09/25 10:41:35;;;;;;;;;;;21.20;99.90;;;;;;5012869;28;19913;-62
2023/09/25 10:44:01;;;;;;;;;;;20.80;99.90;;;;;;5013962;28;19928;-63
2023/09/25 10:46:27;;;;;;;;;;;20.50;99.90;;;;;;5015044;28;19913;-63
2023/09/25 10:48:55;;;;;;;;;;;20.50;99.90;;;;;;5018777;28;20445;-65
2023/09/25 10:51:21;;;;;;;;;;;20.80;99.90;;;;;;5019037;28;20372;-64
2023/09/25 10:53:47;;;;;;;;;;;21.60;99.90;;;;;;5002680;28;19961;-62
2023/09/25 10:56:14;;;;;;;;;;;22.20;99.90;;;;;;5019894;28;20485;-63
2023/09/25 10:58:40;;;;;;;;;;;22.40;99.90;;;;;;5012582;28;20000;-63
2023/09/25 11:01:05;;;;;;;;;;;22.50;99.90;;;;;;5012069;28;20044;-65
2023/09/25 11:03:34;;;;;;;;;;;23.00;99.90;;;;;;5012771;28;20382;-63
2023/09/25 11:05:59;;;;;;;;;;;23.60;99.90;;;;;;5016471;28;19913;-63
2023/09/25 11:08:26;;;;;;;;;;;24.30;99.70;;;;;;5015446;28;20658;-63
2023/09/25 11:10:53;;;;;;;;;;;24.70;98.90;;;;;;5016302;28;21352;-66
2023/09/25 11:13:20;;;;;;;;;;;25.10;98.30;;;;;;4994728;28;19955;-66
2023/09/25 11:15:46;;;;;;;;;;;25.40;97.80;;;;;;5002547;28;20357;-66
2023/09/25 11:18:12;;;;;;;;;;;25.50;97.30;;;;;;5013467;28;19975;-65
2023/09/25 11:20:38;;;;;;;;;;;25.60;97.20;;;;;;4996929;28;19913;-66
2023/09/25 11:23:08;;;;;;;;;;;24.30;97.40;;;;;;5014731;28;20554;-65
2023/09/25 11:25:53;;;;;;;;;;;24.00;98.70;;;;;;5010811;28;19956;-65
2023/09/25 11:28:24;;;;;;;;;;;24.10;98.30;;;;;;5004644;28;19967;-66
2023/09/25 11:30:50;;;;;;;;;;;24.10;98.70;;;;;;5007392;28;19921;-67
2023/09/25 11:33:20;;;;;;;;;;;24.70;98.30;;;;;;5014016;28;19917;-68
2023/09/25 11:35:47;;;;;;;;;;;24.70;97.20;;;;;;5013347;28;19909;-67
2023/09/25 11:38:17;;;;;;;;;;;24.10;98.10;;;;;;5017091;28;21245;-69
2023/09/25 11:40:44;;;;;;;;;;;24.20;97.80;;;;;;5010140;28;19917;-68
2023/09/25 11:43:10;;;;;;;;;;;24.50;97.50;;;;;;5016174;28;19979;-68
2023/09/25 11:45:35;;;;;;;;;;;24.80;97.00;;;;;;5011169;28;19944;-69
2023/09/25 11:48:01;;;;;;;;;;;25.00;96.60;;;;;;5003767;28;19913;-68
2023/09/25 11:50:27;;;;;;;;;;;25.30;96.60;;;;;;5012719;28;19958;-68
2023/09/25 11:52:53;;;;;;;;;;;25.40;96.40;;;;;;4997098;28;19949;-68
2023/09/25 11:55:19;;;;;;;;;;;25.40;96.20;;;;;;5001280;28;19913;-69
2023/09/25 11:57:45;;;;;;;;;;;25.30;96.20;;;;;;5013962;28;19921;-69
2023/09/25 12:00:15;;;;;;;;;;;25.30;96.10;;;;;;5014129;28;19913;-68
2023/09/25 12:02:43;;;;;;;;;;;25.20;96.10;;;;;;5014132;28;19909;-68
2023/09/25 12:05:09;;;;;;;;;;;25.10;96.10;;;;;;5017450;28;19993;-68
2023/09/25 12:07:38;;;;;;;;;;;25.20;96.30;;;;;;5009943;28;19975;-68
2023/09/25 12:10:05;;;;;;;;;;;25.20;95.90;;;;;;5018280;28;20546;-68
2023/09/25 12:12:38;;;;;;;;;;;24.90;96.30;;;;;;5013989;28;20414;-68
2023/09/25 12:15:05;;;;;;;;;;;24.90;96.50;;;;;;4998136;28;19917;-68
2023/09/25 12:17:31;;;;;;;;;;;24.40;97.10;;;;;;5017105;28;20604;-68
2023/09/25 12:20:11;;;;;;;;;;;24.10;97.60;;;;;;5018395;28;19917;-66
2023/09/25 12:22:37;;;;;;;;;;;23.50;98.10;;;;;;5015084;28;19917;-66
2023/09/25 12:25:05;;;;;;;;;;;23.00;99.20;;;;;;5017835;28;19919;-66
2023/09/25 12:27:30;;;;;;;;;;;22.30;99.90;;;;;;5012528;28;19914;-66
2023/09/25 12:29:56;;;;;;;;;;;22.30;99.90;;;;;;5017421;28;19923;-66
2023/09/25 12:32:22;;;;;;;;;;;22.70;99.90;;;;;;5006554;28;19913;-66
2023/09/25 12:34:48;;;;;;;;;;;22.90;99.50;;;;;;5016331;28;19974;-66
2023/09/25 12:37:13;;;;;;;;;;;23.00;99.40;;;;;;5008028;28;20181;-66
2023/09/25 12:39:40;;;;;;;;;;;22.90;99.60;;;;;;5016390;28;19982;-67
2023/09/25 12:42:06;;;;;;;;;;;22.90;99.80;;;;;;5014693;28;19924;-66
2023/09/25 12:44:31;;;;;;;;;;;23.00;99.70;;;;;;5014786;28;19921;-66
2023/09/25 12:46:57;;;;;;;;;;;22.50;99.90;;;;;;5008409;28;20579;-64
2023/09/25 12:49:23;;;;;;;;;;;22.20;99.90;;;;;;5017610;28;20654;-64
2023/09/25 12:51:50;;;;;;;;;;;21.90;99.90;;;;;;5015520;28;19916;-63
2023/09/25 12:54:16;;;;;;;;;;;21.60;99.90;;;;;;5014718;28;19913;-63
2023/09/25 12:56:42;;;;;;;;;;;21.60;99.90;;;;;;5020962;28;19920;-63
2023/09/25 12:59:08;;;;;;;;;;;21.60;99.90;;;;;;5015234;28;19952;-64
2023/09/25 13:01:35;;;;;;;;;;;21.80;99.90;;;;;;5020734;28;19967;-63
2023/09/25 13:04:01;;;;;;;;;;;22.20;99.90;;;;;;5014708;28;19921;-63
2023/09/25 13:06:27;;;;;;;;;;;22.50;99.90;;;;;;5021350;28;20283;-63
2023/09/25 13:08:53;;;;;;;;;;;22.50;99.90;;;;;;5011670;28;19924;-63
2023/09/25 13:11:18;;;;;;;;;;;22.40;99.90;;;;;;5019316;28;20003;-63
2023/09/25 13:13:44;;;;;;;;;;;22.40;99.90;;;;;;5015132;28;20606;-64
2023/09/25 13:16:09;;;;;;;;;;;22.00;99.90;;;;;;5020242;28;19920;-63
2023/09/25 13:18:35;;;;;;;;;;;22.00;99.90;;;;;;5014584;28;19990;-63
2023/09/25 13:21:01;;;;;;;;;;;22.00;99.90;;;;;;5014948;28;19909;-64
2023/09/25 13:23:26;;;;;;;;;;;22.20;99.90;;;;;;5015227;28;19909;-63
2023/09/25 13:25:52;;;;;;;;;;;22.50;99.90;;;;;;5012808;28;19964;-64
2023/09/25 13:28:18;;;;;;;;;;;22.60;99.90;;;;;;5013447;28;19917;-64
2023/09/25 13:30:43;;;;;;;;;;;22.60;99.90;;;;;;5020247;28;19928;-64
2023/09/25 13:33:09;;;;;;;;;;;22.30;99.90;;;;;;5014525;28;19915;-63
2023/09/25 13:35:35;;;;;;;;;;;22.20;99.90;;;;;;5013893;28;19917;-64
2023/09/25 13:38:01;;;;;;;;;;;22.00;99.90;;;;;;5019663;28;19971;-63
2023/09/25 13:40:28;;;;;;;;;;;21.90;99.90;;;;;;5014296;28;20340;-64
2023/09/25 13:42:54;;;;;;;;;;;21.90;99.90;;;;;;5004245;28;19918;-63
2023/09/25 13:45:20;;;;;;;;;;;21.90;99.90;;;;;;5014404;28;20417;-63
2023/09/25 13:47:45;;;;;;;;;;;21.80;99.90;;;;;;5020414;28;20343;-63
2023/09/25 13:50:12;;;;;;;;;;;21.80;99.90;;;;;;5015247;28;19917;-63
2023/09/25 13:52:38;;;;;;;;;;;21.80;99.90;;;;;;5013418;28;19996;-63
2023/09/25 13:55:04;;;;;;;;;;;21.90;99.90;;;;;;4997437;28;20008;-63
2023/09/25 13:57:29;;;;;;;;;;;21.90;99.90;;;;;;5015545;28;19921;-63
2023/09/25 13:59:55;;;;;;;;;;;21.90;99.90;;;;;;5020829;28;20595;-63
2023/09/25 14:02:22;;;;;;;;;;;21.90;99.90;;;;;;5004285;28;19913;-63
2023/09/25 14:04:48;;;;;;;;;;;21.80;99.90;;;;;;5014626;28;20361;-63
2023/09/25 14:07:13;;;;;;;;;;;21.70;99.90;;;;;;5018870;28;19924;-63
2023/09/25 14:09:40;;;;;;;;;;;21.70;99.90;;;;;;5014127;28;20187;-63
2023/09/25 14:12:05;;;;;;;;;;;21.60;99.90;;;;;;5014085;28;20815;-63
2023/09/25 14:14:41;;;;;;;;;;;21.70;99.90;;;;;;5017310;28;19935;-64
2023/09/25 14:17:08;;;;;;;;;;;21.70;99.90;;;;;;4995774;28;19923;-63
2023/09/25 14:19:33;;;;;;;;;;;21.70;99.90;;;;;;5013234;28;19917;-63
2023/09/25 14:21:59;;;;;;;;;;;21.80;99.90;;;;;;5018933;28;20063;-63
2023/09/25 14:24:24;;;;;;;;;;;21.80;99.90;;;;;;5015878;28;20340;-63
2023/09/25 14:26:51;;;;;;;;;;;21.80;99.90;;;;;;5017751;28;19913;-63
2023/09/25 14:29:16;;;;;;;;;;;21.80;99.90;;;;;;4996208;28;20105;-63
2023/09/25 14:31:42;;;;;;;;;;;21.70;99.90;;;;;;5014882;28;20046;-63
2023/09/25 14:34:07;;;;;;;;;;;21.70;99.90;;;;;;5000144;28;19917;-63
2023/09/25 14:36:33;;;;;;;;;;;21.60;99.90;;;;;;5014525;28;19909;-63
2023/09/25 14:38:58;;;;;;;;;;;21.60;99.90;;;;;;5016308;28;20400;-63
2023/09/25 14:41:24;;;;;;;;;;;21.60;99.90;;;;;;5015393;28;19909;-63
2023/09/25 14:43:49;;;;;;;;;;;21.60;99.90;;;;;;5011143;28;20212;-63
2023/09/25 14:46:15;;;;;;;;;;;21.60;99.90;;;;;;5016764;28;19917;-63
2023/09/25 14:48:46;;;;;;;;;;;21.50;99.90;;;;;;5009945;28;20284;-63
2023/09/25 14:51:13;;;;;;;;;;;21.50;99.90;;;;;;5010241;28;19913;-63
2023/09/25 14:53:39;;;;;;;;;;;21.50;99.90;;;;;;5018422;28;19932;-63
2023/09/25 14:56:04;;;;;;;;;;;21.60;99.90;;;;;;5014624;28;19925;-63
2023/09/25 14:58:30;;;;;;;;;;;21.50;99.90;;;;;;5017924;28;19913;-63
2023/09/25 15:00:57;;;;;;;;;;;21.40;99.90;;;;;;5014277;28;19917;-64
2023/09/25 15:03:22;;;;;;;;;;;21.30;99.90;;;;;;4999826;28;19913;-63
2023/09/25 15:05:49;;;;;;;;;;;21.40;99.90;;;;;;5009898;28;19920;-63
2023/09/25 15:08:15;;;;;;;;;;;21.40;99.90;;;;;;5015825;28;19951;-63
2023/09/25 15:10:41;;;;;;;;;;;21.30;99.90;;;;;;5017490;28;19910;-63
2023/09/25 15:13:07;;;;;;;;;;;21.30;99.90;;;;;;5004963;28;19917;-63
2023/09/25 15:15:32;;;;;;;;;;;21.30;99.90;;;;;;5012805;28;19956;-63
2023/09/25 15:17:58;;;;;;;;;;;21.30;99.90;;;;;;5013879;28;20384;-62
2023/09/25 15:20:23;;;;;;;;;;;21.30;99.90;;;;;;5012391;28;20482;-63
2023/09/25 15:22:49;;;;;;;;;;;21.20;99.90;;;;;;5002605;28;20264;-62
2023/09/25 15:25:14;;;;;;;;;;;21.20;99.90;;;;;;5018310;28;20312;-63
2023/09/25 15:27:41;;;;;;;;;;;21.20;99.90;;;;;;5017935;28;19920;-62
2023/09/25 15:30:07;;;;;;;;;;;21.10;99.90;;;;;;5009265;28;19928;-63
2023/09/25 15:32:33;;;;;;;;;;;21.20;99.90;;;;;;5016012;28;19912;-62
2023/09/25 15:35:00;;;;;;;;;;;21.10;99.90;;;;;;5012805;28;19917;-63
2023/09/25 15:37:27;;;;;;;;;;;21.10;99.90;;;;;;5016744;28;19920;-62
2023/09/25 15:39:53;;;;;;;;;;;21.20;99.90;;;;;;5012966;28;19909;-63
2023/09/25 15:42:18;;;;;;;;;;;21.20;99.90;;;;;;5017135;28;20326;-63
2023/09/25 15:44:44;;;;;;;;;;;21.20;99.90;;;;;;4996094;28;19925;-63
2023/09/25 15:47:10;;;;;;;;;;;21.10;99.90;;;;;;5018461;28;19913;-63
2023/09/25 15:49:36;;;;;;;;;;;21.10;99.90;;;;;;5015579;28;19921;-62
2023/09/25 15:52:02;;;;;;;;;;;21.00;99.90;;;;;;5017330;28;20605;-64
2023/09/25 15:54:29;;;;;;;;;;;20.90;99.90;;;;;;5014973;28;19909;-62
2023/09/25 15:56:55;;;;;;;;;;;21.00;99.90;;;;;;5008486;28;19936;-63
2023/09/25 15:59:21;;;;;;;;;;;20.90;99.90;;;;;;5016173;28;20310;-63
2023/09/25 16:01:46;;;;;;;;;;;20.80;99.90;;;;;;5009044;28;19909;-63
2023/09/25 16:04:12;;;;;;;;;;;20.80;99.90;;;;;;4999973;28;19999;-69
2023/09/25 16:06:38;;;;;;;;;;;20.80;99.90;;;;;;5017417;28;19909;-63
2023/09/25 16:09:04;;;;;;;;;;;20.80;99.90;;;;;;5010443;28;19920;-63
2023/09/25 16:11:30;;;;;;;;;;;20.70;99.90;;;;;;5014082;28;20460;-66
2023/09/25 16:13:55;;;;;;;;;;;20.60;99.90;;;;;;5017853;28;19963;-61
2023/09/25 16:16:21;;;;;;;;;;;20.60;99.90;;;;;;5012287;28;19963;-62
2023/09/25 16:18:47;;;;;;;;;;;20.50;99.90;;;;;;5006040;28;19931;-62
2023/09/25 16:21:13;;;;;;;;;;;20.40;99.90;;;;;;5016068;28;21573;-61
2023/09/25 16:23:40;;;;;;;;;;;20.40;99.90;;;;;;4998798;28;19917;-63
2023/09/25 16:26:06;;;;;;;;;;;20.30;99.90;;;;;;4994863;28;19925;-63
2023/09/25 16:28:32;;;;;;;;;;;20.30;99.90;;;;;;5014259;28;20399;-62
2023/09/25 16:30:58;;;;;;;;;;;20.20;99.90;;;;;;5001273;28;19909;-63
2023/09/25 16:33:24;;;;;;;;;;;20.10;99.90;;;;;;5017112;28;20457;-63
2023/09/25 16:35:49;;;;;;;;;;;20.00;99.90;;;;;;5015552;28;19913;-64
2023/09/25 16:38:15;;;;;;;;;;;20.00;99.90;;;;;;5018771;28;19959;-63
2023/09/25 16:40:41;;;;;;;;;;;19.90;99.90;;;;;;4998557;28;19948;-63
2023/09/25 16:43:07;;;;;;;;;;;19.90;99.90;;;;;;5013597;28;19927;-63
2023/09/25 16:45:37;;;;;;;;;;;19.90;99.90;;;;;;5015031;28;19979;-63
2023/09/25 16:48:04;;;;;;;;;;;19.80;99.90;;;;;;4996839;28;19910;-63
2023/09/25 16:50:30;;;;;;;;;;;19.70;99.90;;;;;;5016469;28;19936;-63
2023/09/25 16:52:56;;;;;;;;;;;19.60;99.90;;;;;;5012159;28;19913;-63
2023/09/25 16:55:23;;;;;;;;;;;19.60;99.90;;;;;;5016567;28;20655;-63
2023/09/25 16:57:49;;;;;;;;;;;19.50;99.90;;;;;;5008576;28;20107;-63
2023/09/25 17:00:16;;;;;;;;;;;19.40;99.90;;;;;;5008080;28;20016;-66
2023/09/25 17:02:43;;;;;;;;;;;19.30;99.90;;;;;;4994100;28;20467;-65
2023/09/25 17:05:09;;;;;;;;;;;19.20;99.90;;;;;;4998328;28;19917;-66
2023/09/25 17:07:35;;;;;;;;;;;19.10;99.90;;;;;;5017305;28;20798;-63
2023/09/25 17:10:05;;;;;;;;;;;19.00;99.90;;;;;;4995878;28;19921;-63
2023/09/25 17:12:32;;;;;;;;;;;18.90;99.90;;;;;;5011310;28;20932;-63
2023/09/25 17:14:58;;;;;;;;;;;18.90;99.90;;;;;;5016344;28;20356;-63
2023/09/25 17:17:24;;;;;;;;;;;18.80;99.90;;;;;;4995267;28;19910;-63
2023/09/25 17:19:50;;;;;;;;;;;18.80;99.90;;;;;;5016298;28;20403;-63
2023/09/25 17:22:16;;;;;;;;;;;18.70;99.90;;;;;;5014571;28;20517;-63
2023/09/25 17:24:42;;;;;;;;;;;18.70;99.90;;;;;;5015159;28;19913;-63
2023/09/25 17:27:14;;;;;;;;;;;18.60;99.90;;;;;;5016311;28;19936;-61
2023/09/25 17:29:40;;;;;;;;;;;18.50;99.90;;;;;;4996177;28;20437;-62
2023/09/25 17:32:06;;;;;;;;;;;18.50;99.90;;;;;;5017573;28;19917;-62
2023/09/25 17:34:32;;;;;;;;;;;18.40;99.90;;;;;;5001842;28;19909;-61
2023/09/25 17:36:58;;;;;;;;;;;18.40;99.90;;;;;;5017194;28;19909;-63
2023/09/25 17:39:24;;;;;;;;;;;18.40;99.90;;;;;;4996974;28;19924;-63